Bretagne — FNBR — position and weather

sailwx.info

Track history (hours):
 
Tides and Currents Weather Stations Pressure Air Temp Water Temp Dewpoint Dewpoint Depression Visibility Wind Speed Wind Dir Waves Ship Positions

Bretagne

Operator: Brittany Ferries

Last reported at 2016-May-28 23:33 UTC. Time now 2016-May-29 00:06 UTC.
Position N 49°56' W 001°49'.

Length 151 m; beam 27 m.

Type: Ship. MMSI: 227286000.

Date/timePositionNaut miles runAvg speedWind from/ knotsBaromVisibWave heightAir tempDewpointWater temp
2016-May-28 23:33N 49°56' W 001°49'1414.1
2016-May-28 22:33N 50°08' W 001°38'1615.1
2016-May-28 21:28N 50°22' W 001°24'1415.8
2016-May-28 20:33N 50°33' W 001°11'1313.3
2016-May-28 19:34N 50°46' W 001°05'2 2.4
2016-May-28 18:33N 50°49' W 001°06'0 0.0
2016-May-28 17:33N 50°49' W 001°06'2 1.8
2016-May-28 16:33N 50°47' W 001°06'1414.2
2016-May-28 15:33N 50°33' W 001°12'2118.1
2016-May-28 14:24N 50°16' W 001°31'1617.4
2016-May-28 13:29N 50°01' W 001°41'1917.8
2016-May-28 12:25N 49°46' W 001°58'5818.7
2016-May-28 09:19N 48°49' W 002°14'1315.9
2016-May-28 08:28N 48°38' W 002°02'6 2.1
2016-May-28 05:31N 48°43' W 002°08'3515.6
2016-May-28 03:18N 49°16' W 002°22'4415.0
2016-May-28 00:23N 49°55' W 001°51'1313.7
2016-May-27 23:26N 50°06' W 001°40'1814.1
2016-May-27 22:10N 50°21' W 001°25'914.6
2016-May-27 21:33N 50°28' W 001°17'1414.0
2016-May-27 20:33N 50°40' W 001°04'9 9.0
2016-May-27 19:33N 50°49' W 001°06'0 0.1
2016-May-27 18:33N 50°49' W 001°06'0 0.0
2016-May-27 17:33N 50°49' W 001°06'8 7.9
2016-May-27 16:34N 50°41' W 001°03'1716.8
2016-May-27 15:32N 50°26' W 001°16'2418.5
2016-May-27 14:14N 50°06' W 001°37'1419.5
2016-May-27 13:32N 49°55' W 001°49'24 1.7
2016-May-26 23:20N 50°16' W 001°30'1013.3
2016-May-26 22:33N 50°24' W 001°20'1312.9
2016-May-26 21:33N 50°35' W 001°09'1212.1
2016-May-26 20:33N 50°46' W 001°06'2 2.2
2016-May-26 19:33N 50°49' W 001°06'0 0.0
2016-May-26 18:33N 50°49' W 001°06'1010.1
2016-May-26 17:34N 50°39' W 001°06'1716.8
2016-May-26 16:33N 50°24' W 001°20'1716.8
2016-May-26 15:32N 50°10' W 001°35'1716.9
2016-May-26 14:33N 49°55' W 001°47'4116.8
2016-May-26 12:07N 49°15' W 002°01'13 1.6
2016-May-26 04:11N 49°19' W 002°20'4220.3
2016-May-26 02:06N 49°56' W 001°49'1018.4
2016-May-26 01:33N 50°03' W 001°39'2217.4
2016-May-26 00:17N 50°22' W 001°20'1216.6
2016-May-25 23:33N 50°32' W 001°11'1413.7
2016-May-25 22:33N 50°46' W 001°05'3 3.0
2016-May-25 21:33N 50°49' W 001°06'0 0.0
2016-May-25 20:33N 50°49' W 001°06'0 0.0
2016-May-25 19:33N 50°49' W 001°06'0 0.0
2016-May-25 18:33N 50°49' W 001°06'0 0.0
2016-May-25 17:33N 50°49' W 001°06'0 0.0
2016-May-25 16:33N 50°49' W 001°06'0 0.0
2016-May-25 15:33N 50°49' W 001°06'0 0.0
2016-May-25 14:33N 50°49' W 001°06'0 0.0
2016-May-25 13:33N 50°49' W 001°06'0 0.0
2016-May-25 12:33N 50°49' W 001°06'0 0.0
2016-May-25 11:33N 50°49' W 001°06'0 0.0
2016-May-25 10:33N 50°49' W 001°06'0 0.0
2016-May-25 09:33N 50°49' W 001°06'0 0.0
2016-May-25 08:33N 50°49' W 001°06'0 0.0
2016-May-25 07:33N 50°49' W 001°06'0 0.2
2016-May-25 06:33N 50°49' W 001°06'10 9.8
2016-May-25 05:34N 50°40' W 000°59'124 5.2
2016-May-24 05:33N 48°44' W 002°08'7113.4
2016-May-24 00:14N 49°54' W 001°49'1015.1
2016-May-23 23:33N 50°02' W 001°40'2713.8
2016-May-23 21:33N 50°25' W 001°16'1212.5
2016-May-23 20:34N 50°36' W 001°07'1110.6
2016-May-23 19:33N 50°47' W 001°06'2 1.7
2016-May-23 18:33N 50°49' W 001°06'0 0.0
2016-May-23 17:33N 50°49' W 001°06'7 6.7
2016-May-23 16:34N 50°43' W 001°00'1514.6
2016-May-23 15:33N 50°31' W 001°14'1716.7
2016-May-23 14:34N 50°19' W 001°32'1716.9
2016-May-23 13:33N 50°05' W 001°46'1717.3
2016-May-23 12:34N 49°50' W 002°00'15 1.2
2016-May-23 00:07N 50°03' W 001°47'1015.7
2016-May-22 23:28N 50°10' W 001°36'1414.6
2016-May-22 22:31N 50°21' W 001°21'1313.9
2016-May-22 21:34N 50°32' W 001°11'1211.6
2016-May-22 20:33N 50°42' W 001°03'7 6.6
2016-May-22 19:33N 50°49' W 001°07'1 0.7
2016-May-22 18:31N 50°49' W 001°06'0 0.0
2016-May-22 17:33N 50°49' W 001°06'9 8.8
2016-May-22 16:33N 50°41' W 000°59'1817.2
2016-May-22 15:31N 50°29' W 001°20'17 1.0
2016-May-21 22:31N 50°14' W 001°30'1313.9
2016-May-21 21:33N 50°25' W 001°18'1313.0
2016-May-21 20:33N 50°36' W 001°08'1111.2
2016-May-21 19:33N 50°47' W 001°06'2 1.6
2016-May-21 18:31N 50°49' W 001°06'0 0.0
2016-May-21 17:33N 50°49' W 001°06'1111.1
2016-May-21 16:34N 50°38' W 000°60'1918.2
2016-May-21 15:32N 50°23' W 001°18'10913.6
2016-May-21 07:31N 48°38' W 002°02'9 4.1
2016-May-21 05:26N 48°46' W 002°09'4112.6
2016-May-21 02:10N 49°27' W 002°14'6814.7
2016-May-20 21:31N 50°25' W 001°19'1313.1
2016-May-20 20:34N 50°36' W 001°08'1111.3
2016-May-20 19:34N 50°47' W 001°06'2 1.7
2016-May-20 18:32N 50°49' W 001°06'0 0.0
2016-May-20 17:33N 50°49' W 001°06'9 8.8
2016-May-20 16:34N 50°41' W 000°58'2318.8
2016-May-20 15:21N 50°23' W 001°19'10216.5
2016-May-20 09:09N 48°47' W 002°11'1016.1
2016-May-20 08:31N 48°38' W 002°02'0 0.0
2016-May-20 07:31N 48°38' W 002°02'11611.6
2016-May-19 21:33N 50°30' W 001°14'1313.1
2016-May-19 20:34N 50°41' W 001°03'8 8.1
2016-May-19 19:34N 50°48' W 001°07'1 0.6
2016-May-19 18:33N 50°49' W 001°06'0 0.0
2016-May-19 17:33N 50°49' W 001°06'9 8.8
2016-May-19 16:34N 50°40' W 001°04'2119.7
2016-May-19 15:31N 50°23' W 001°23'1818.7
2016-May-19 14:33N 50°09' W 001°39'66 6.6
2016-May-19 04:32N 49°09' W 002°23'1413.9
2016-May-19 03:33N 49°22' W 002°18'  
Track history (hours):
 
Tides and Currents Weather Stations Pressure Air Temp Water Temp Dewpoint Dewpoint Depression Visibility Wind Speed Wind Dir Waves Ship Positions

Bretagne

Operator: Brittany Ferries

Last reported at 2016-May-28 23:33 UTC. Time now 2016-May-29 00:06 UTC.
Position N 49°56' W 001°49'.

Length 151 m; beam 27 m.

Type: Ship. MMSI: 227286000.

Date/timePositionNaut miles runAvg speedWind from/ knotsBaromVisibWave heightAir tempDewpointWater temp
2016-May-28 23:33N 49°56' W 001°49'1414.1
2016-May-28 22:33N 50°08' W 001°38'1615.1
2016-May-28 21:28N 50°22' W 001°24'1415.8
2016-May-28 20:33N 50°33' W 001°11'1313.3
2016-May-28 19:34N 50°46' W 001°05'2 2.4
2016-May-28 18:33N 50°49' W 001°06'0 0.0
2016-May-28 17:33N 50°49' W 001°06'2 1.8
2016-May-28 16:33N 50°47' W 001°06'1414.2
2016-May-28 15:33N 50°33' W 001°12'2118.1
2016-May-28 14:24N 50°16' W 001°31'1617.4
2016-May-28 13:29N 50°01' W 001°41'1917.8
2016-May-28 12:25N 49°46' W 001°58'5818.7
2016-May-28 09:19N 48°49' W 002°14'1315.9
2016-May-28 08:28N 48°38' W 002°02'6 2.1
2016-May-28 05:31N 48°43' W 002°08'3515.6
2016-May-28 03:18N 49°16' W 002°22'4415.0
2016-May-28 00:23N 49°55' W 001°51'1313.7
2016-May-27 23:26N 50°06' W 001°40'1814.1
2016-May-27 22:10N 50°21' W 001°25'914.6
2016-May-27 21:33N 50°28' W 001°17'1414.0
2016-May-27 20:33N 50°40' W 001°04'9 9.0
2016-May-27 19:33N 50°49' W 001°06'0 0.1
2016-May-27 18:33N 50°49' W 001°06'0 0.0
2016-May-27 17:33N 50°49' W 001°06'8 7.9
2016-May-27 16:34N 50°41' W 001°03'1716.8
2016-May-27 15:32N 50°26' W 001°16'2418.5
2016-May-27 14:14N 50°06' W 001°37'1419.5
2016-May-27 13:32N 49°55' W 001°49'24 1.7
2016-May-26 23:20N 50°16' W 001°30'1013.3
2016-May-26 22:33N 50°24' W 001°20'1312.9
2016-May-26 21:33N 50°35' W 001°09'1212.1
2016-May-26 20:33N 50°46' W 001°06'2 2.2
2016-May-26 19:33N 50°49' W 001°06'0 0.0
2016-May-26 18:33N 50°49' W 001°06'1010.1
2016-May-26 17:34N 50°39' W 001°06'1716.8
2016-May-26 16:33N 50°24' W 001°20'1716.8
2016-May-26 15:32N 50°10' W 001°35'1716.9
2016-May-26 14:33N 49°55' W 001°47'4116.8
2016-May-26 12:07N 49°15' W 002°01'13 1.6
2016-May-26 04:11N 49°19' W 002°20'4220.3
2016-May-26 02:06N 49°56' W 001°49'1018.4
2016-May-26 01:33N 50°03' W 001°39'2217.4
2016-May-26 00:17N 50°22' W 001°20'1216.6
2016-May-25 23:33N 50°32' W 001°11'1413.7
2016-May-25 22:33N 50°46' W 001°05'3 3.0
2016-May-25 21:33N 50°49' W 001°06'0 0.0
2016-May-25 20:33N 50°49' W 001°06'0 0.0
2016-May-25 19:33N 50°49' W 001°06'0 0.0
2016-May-25 18:33N 50°49' W 001°06'0 0.0
2016-May-25 17:33N 50°49' W 001°06'0 0.0
2016-May-25 16:33N 50°49' W 001°06'0 0.0
2016-May-25 15:33N 50°49' W 001°06'0 0.0
2016-May-25 14:33N 50°49' W 001°06'0 0.0
2016-May-25 13:33N 50°49' W 001°06'0 0.0
2016-May-25 12:33N 50°49' W 001°06'0 0.0
2016-May-25 11:33N 50°49' W 001°06'0 0.0
2016-May-25 10:33N 50°49' W 001°06'0 0.0
2016-May-25 09:33N 50°49' W 001°06'0 0.0
2016-May-25 08:33N 50°49' W 001°06'0 0.0
2016-May-25 07:33N 50°49' W 001°06'0 0.2
2016-May-25 06:33N 50°49' W 001°06'10 9.8
2016-May-25 05:34N 50°40' W 000°59'124 5.2
2016-May-24 05:33N 48°44' W 002°08'7113.4
2016-May-24 00:14N 49°54' W 001°49'1015.1
2016-May-23 23:33N 50°02' W 001°40'2713.8
2016-May-23 21:33N 50°25' W 001°16'1212.5
2016-May-23 20:34N 50°36' W 001°07'1110.6
2016-May-23 19:33N 50°47' W 001°06'2 1.7
2016-May-23 18:33N 50°49' W 001°06'0 0.0
2016-May-23 17:33N 50°49' W 001°06'7 6.7
2016-May-23 16:34N 50°43' W 001°00'1514.6
2016-May-23 15:33N 50°31' W 001°14'1716.7
2016-May-23 14:34N 50°19' W 001°32'1716.9
2016-May-23 13:33N 50°05' W 001°46'1717.3
2016-May-23 12:34N 49°50' W 002°00'15 1.2
2016-May-23 00:07N 50°03' W 001°47'1015.7
2016-May-22 23:28N 50°10' W 001°36'1414.6
2016-May-22 22:31N 50°21' W 001°21'1313.9
2016-May-22 21:34N 50°32' W 001°11'1211.6
2016-May-22 20:33N 50°42' W 001°03'7 6.6
2016-May-22 19:33N 50°49' W 001°07'1 0.7
2016-May-22 18:31N 50°49' W 001°06'0 0.0
2016-May-22 17:33N 50°49' W 001°06'9 8.8
2016-May-22 16:33N 50°41' W 000°59'1817.2
2016-May-22 15:31N 50°29' W 001°20'17 1.0
2016-May-21 22:31N 50°14' W 001°30'1313.9
2016-May-21 21:33N 50°25' W 001°18'1313.0
2016-May-21 20:33N 50°36' W 001°08'1111.2
2016-May-21 19:33N 50°47' W 001°06'2 1.6
2016-May-21 18:31N 50°49' W 001°06'0 0.0
2016-May-21 17:33N 50°49' W 001°06'1111.1
2016-May-21 16:34N 50°38' W 000°60'1918.2
2016-May-21 15:32N 50°23' W 001°18'10913.6
2016-May-21 07:31N 48°38' W 002°02'9 4.1
2016-May-21 05:26N 48°46' W 002°09'4112.6
2016-May-21 02:10N 49°27' W 002°14'6814.7
2016-May-20 21:31N 50°25' W 001°19'1313.1
2016-May-20 20:34N 50°36' W 001°08'1111.3
2016-May-20 19:34N 50°47' W 001°06'2 1.7
2016-May-20 18:32N 50°49' W 001°06'0 0.0
2016-May-20 17:33N 50°49' W 001°06'9 8.8
2016-May-20 16:34N 50°41' W 000°58'2318.8
2016-May-20 15:21N 50°23' W 001°19'10216.5
2016-May-20 09:09N 48°47' W 002°11'1016.1
2016-May-20 08:31N 48°38' W 002°02'0 0.0
2016-May-20 07:31N 48°38' W 002°02'11611.6
2016-May-19 21:33N 50°30' W 001°14'1313.1
2016-May-19 20:34N 50°41' W 001°03'8 8.1
2016-May-19 19:34N 50°48' W 001°07'1 0.6
2016-May-19 18:33N 50°49' W 001°06'0 0.0
2016-May-19 17:33N 50°49' W 001°06'9 8.8
2016-May-19 16:34N 50°40' W 001°04'2119.7
2016-May-19 15:31N 50°23' W 001°23'1818.7
2016-May-19 14:33N 50°09' W 001°39'66 6.6
2016-May-19 04:32N 49°09' W 002°23'1413.9
2016-May-19 03:33N 49°22' W 002°18'  

Dump ship's entire track history